EFKE/KEM METAR and TAF weather

Enter ICAO airport designator
Station Type Date Time Source
EFKE METAR 2018/10/16 14:50 UTC NOAA

EFKE 161450Z AUTO 22004KT CAVOK 06/03 Q1015


Station Type Date Time Source
EFKE Decoded METAR 2018/10/16 14:50 UTC NOAA

Kemi, Finland (EFKE) 65-47N 024-35E
Oct 16, 2018 - 10:50 AM EDT / 2018.10.16 1450 UTC
Wind: from the SW (220 degrees) at 5 MPH (4 KT):0
Visibility: greater than 7 mile(s):0
Temperature: 42 F (6 C)
Dew Point: 37 F (3 C)
Relative Humidity: 81%
Pressure (altimeter): 29.97 in. Hg (1015 hPa)
ob: EFKE 161450Z AUTO 22004KT CAVOK 06/03 Q1015
cycle: 15

Station Type Date Time Source
EFKE TAF 2015/01/12 15:42 UTC NOAA

TAF EFKE 121433Z 1215/1312 03006KT CAVOK
BECMG 1300/1302 9999 BKN015
FM130400 07008KT 9999 SCT014 BKN018
TEMPO 1304/1312 7000 -SN


Example: see airport list